sensor_id;sensor_type;location;lat;lon;timestamp;temperature;humidity
19920;DHT22;10122;50.074;19.920;2022-07-22T00:00:59;23.90;99.90
19920;DHT22;10122;50.074;19.920;2022-07-22T00:03:25;23.90;99.90
19920;DHT22;10122;50.074;19.920;2022-07-22T00:05:50;23.80;99.90
19920;DHT22;10122;50.074;19.920;2022-07-22T00:08:16;23.70;99.90
19920;DHT22;10122;50.074;19.920;2022-07-22T00:10:42;23.70;99.90
19920;DHT22;10122;50.074;19.920;2022-07-22T00:13:08;23.70;99.90
19920;DHT22;10122;50.074;19.920;2022-07-22T00:15:34;23.70;99.90
19920;DHT22;10122;50.074;19.920;2022-07-22T00:17:59;23.70;99.90
19920;DHT22;10122;50.074;19.920;2022-07-22T00:20:25;23.60;99.90
19920;DHT22;10122;50.074;19.920;2022-07-22T00:22:51;23.70;99.90
19920;DHT22;10122;50.074;19.920;2022-07-22T00:25:17;23.60;99.90
19920;DHT22;10122;50.074;19.920;2022-07-22T00:27:42;23.40;99.90
19920;DHT22;10122;50.074;19.920;2022-07-22T00:30:08;23.30;99.90
19920;DHT22;10122;50.074;19.920;2022-07-22T00:32:35;23.30;99.90
19920;DHT22;10122;50.074;19.920;2022-07-22T00:35:00;23.40;99.90
19920;DHT22;10122;50.074;19.920;2022-07-22T00:37:26;23.30;99.90
19920;DHT22;10122;50.074;19.920;2022-07-22T00:39:52;23.30;99.90
19920;DHT22;10122;50.074;19.920;2022-07-22T00:42:18;23.30;99.90
19920;DHT22;10122;50.074;19.920;2022-07-22T00:44:44;23.30;99.90
19920;DHT22;10122;50.074;19.920;2022-07-22T00:47:11;23.40;99.90
19920;DHT22;10122;50.074;19.920;2022-07-22T00:49:36;23.30;99.90
19920;DHT22;10122;50.074;19.920;2022-07-22T00:52:02;23.30;99.90
19920;DHT22;10122;50.074;19.920;2022-07-22T00:54:30;23.20;99.90
19920;DHT22;10122;50.074;19.920;2022-07-22T00:56:56;23.20;99.90
19920;DHT22;10122;50.074;19.920;2022-07-22T00:59:21;23.20;99.90
19920;DHT22;10122;50.074;19.920;2022-07-22T01:01:47;23.10;99.90
19920;DHT22;10122;50.074;19.920;2022-07-22T01:04:13;23.10;99.90
19920;DHT22;10122;50.074;19.920;2022-07-22T01:06:39;23.20;99.90
19920;DHT22;10122;50.074;19.920;2022-07-22T01:09:10;23.20;99.90
19920;DHT22;10122;50.074;19.920;2022-07-22T01:11:36;23.20;99.90
19920;DHT22;10122;50.074;19.920;2022-07-22T01:14:02;23.20;99.90
19920;DHT22;10122;50.074;19.920;2022-07-22T01:16:28;23.20;99.90
19920;DHT22;10122;50.074;19.920;2022-07-22T01:18:54;23.20;99.90
19920;DHT22;10122;50.074;19.920;2022-07-22T01:21:20;23.10;99.90
19920;DHT22;10122;50.074;19.920;2022-07-22T01:23:46;23.00;99.90
19920;DHT22;10122;50.074;19.920;2022-07-22T01:26:13;23.00;99.90
19920;DHT22;10122;50.074;19.920;2022-07-22T01:28:39;23.00;99.90
19920;DHT22;10122;50.074;19.920;2022-07-22T01:31:05;23.00;99.90
19920;DHT22;10122;50.074;19.920;2022-07-22T01:33:31;22.80;99.90
19920;DHT22;10122;50.074;19.920;2022-07-22T01:35:58;22.70;99.90
19920;DHT22;10122;50.074;19.920;2022-07-22T01:38:23;22.60;99.90
19920;DHT22;10122;50.074;19.920;2022-07-22T01:40:49;22.60;99.90
19920;DHT22;10122;50.074;19.920;2022-07-22T01:43:15;22.50;99.90
19920;DHT22;10122;50.074;19.920;2022-07-22T01:45:44;22.50;99.90
19920;DHT22;10122;50.074;19.920;2022-07-22T01:48:10;22.40;99.90
19920;DHT22;10122;50.074;19.920;2022-07-22T01:50:37;22.40;99.90
19920;DHT22;10122;50.074;19.920;2022-07-22T01:53:02;22.20;99.90
19920;DHT22;10122;50.074;19.920;2022-07-22T01:55:28;22.20;99.90
19920;DHT22;10122;50.074;19.920;2022-07-22T01:57:54;22.20;99.90
19920;DHT22;10122;50.074;19.920;2022-07-22T02:00:20;22.30;99.90
19920;DHT22;10122;50.074;19.920;2022-07-22T02:02:45;22.30;99.90
19920;DHT22;10122;50.074;19.920;2022-07-22T02:05:11;22.30;99.90
19920;DHT22;10122;50.074;19.920;2022-07-22T02:07:37;22.30;99.90
19920;DHT22;10122;50.074;19.920;2022-07-22T02:10:03;22.30;99.90
19920;DHT22;10122;50.074;19.920;2022-07-22T02:12:29;22.30;99.90
19920;DHT22;10122;50.074;19.920;2022-07-22T02:14:55;22.30;99.90
19920;DHT22;10122;50.074;19.920;2022-07-22T02:17:20;22.30;99.90
19920;DHT22;10122;50.074;19.920;2022-07-22T02:19:46;22.30;99.90
19920;DHT22;10122;50.074;19.920;2022-07-22T02:22:12;22.30;99.90
19920;DHT22;10122;50.074;19.920;2022-07-22T02:24:37;22.40;99.90
19920;DHT22;10122;50.074;19.920;2022-07-22T02:27:03;22.30;99.90
19920;DHT22;10122;50.074;19.920;2022-07-22T02:29:29;22.30;99.90
19920;DHT22;10122;50.074;19.920;2022-07-22T02:31:55;22.20;99.90
19920;DHT22;10122;50.074;19.920;2022-07-22T02:34:21;22.00;99.90
19920;DHT22;10122;50.074;19.920;2022-07-22T02:36:47;21.80;99.90
19920;DHT22;10122;50.074;19.920;2022-07-22T02:39:12;21.80;99.90
19920;DHT22;10122;50.074;19.920;2022-07-22T02:41:38;21.80;99.90
19920;DHT22;10122;50.074;19.920;2022-07-22T02:44:04;21.90;99.90
19920;DHT22;10122;50.074;19.920;2022-07-22T02:46:30;21.90;99.90
19920;DHT22;10122;50.074;19.920;2022-07-22T02:48:55;21.90;99.90
19920;DHT22;10122;50.074;19.920;2022-07-22T02:51:21;21.90;99.90
19920;DHT22;10122;50.074;19.920;2022-07-22T02:53:47;21.80;99.90
19920;DHT22;10122;50.074;19.920;2022-07-22T02:56:13;21.80;99.90
19920;DHT22;10122;50.074;19.920;2022-07-22T02:58:40;21.70;99.90
19920;DHT22;10122;50.074;19.920;2022-07-22T03:01:06;21.80;99.90
19920;DHT22;10122;50.074;19.920;2022-07-22T03:03:32;21.80;99.90
19920;DHT22;10122;50.074;19.920;2022-07-22T03:05:58;21.90;99.90
19920;DHT22;10122;50.074;19.920;2022-07-22T03:08:24;21.80;99.90
19920;DHT22;10122;50.074;19.920;2022-07-22T03:10:51;21.80;99.90
19920;DHT22;10122;50.074;19.920;2022-07-22T03:13:17;21.80;99.90
19920;DHT22;10122;50.074;19.920;2022-07-22T03:15:42;21.80;99.90
19920;DHT22;10122;50.074;19.920;2022-07-22T03:18:08;21.80;99.90
19920;DHT22;10122;50.074;19.920;2022-07-22T03:20:34;21.80;99.90
19920;DHT22;10122;50.074;19.920;2022-07-22T03:23:00;21.90;99.90
19920;DHT22;10122;50.074;19.920;2022-07-22T03:25:25;21.80;99.90
19920;DHT22;10122;50.074;19.920;2022-07-22T03:27:51;21.90;99.90
19920;DHT22;10122;50.074;19.920;2022-07-22T03:30:17;22.00;99.90
19920;DHT22;10122;50.074;19.920;2022-07-22T03:32:42;22.00;99.90
19920;DHT22;10122;50.074;19.920;2022-07-22T03:35:13;22.10;99.90
19920;DHT22;10122;50.074;19.920;2022-07-22T03:37:39;22.10;99.90
19920;DHT22;10122;50.074;19.920;2022-07-22T03:40:05;22.10;99.90
19920;DHT22;10122;50.074;19.920;2022-07-22T03:42:32;22.20;99.90
19920;DHT22;10122;50.074;19.920;2022-07-22T03:44:57;22.20;99.90
19920;DHT22;10122;50.074;19.920;2022-07-22T03:47:23;22.20;99.90
19920;DHT22;10122;50.074;19.920;2022-07-22T03:49:49;22.20;99.90
19920;DHT22;10122;50.074;19.920;2022-07-22T03:52:15;22.20;99.90
19920;DHT22;10122;50.074;19.920;2022-07-22T03:54:42;22.20;99.90
19920;DHT22;10122;50.074;19.920;2022-07-22T03:57:07;22.20;99.90
19920;DHT22;10122;50.074;19.920;2022-07-22T03:59:34;22.20;99.90
19920;DHT22;10122;50.074;19.920;2022-07-22T04:02:00;22.20;99.90
19920;DHT22;10122;50.074;19.920;2022-07-22T04:04:26;22.20;99.90
19920;DHT22;10122;50.074;19.920;2022-07-22T04:06:51;22.20;99.90
19920;DHT22;10122;50.074;19.920;2022-07-22T04:09:17;22.20;99.90
19920;DHT22;10122;50.074;19.920;2022-07-22T04:11:43;22.30;99.90
19920;DHT22;10122;50.074;19.920;2022-07-22T04:14:09;22.20;99.90
19920;DHT22;10122;50.074;19.920;2022-07-22T04:16:35;22.20;99.90
19920;DHT22;10122;50.074;19.920;2022-07-22T04:19:01;22.30;99.90
19920;DHT22;10122;50.074;19.920;2022-07-22T04:21:27;22.30;99.90
19920;DHT22;10122;50.074;19.920;2022-07-22T04:23:53;22.30;99.90
19920;DHT22;10122;50.074;19.920;2022-07-22T04:26:19;22.30;99.90
19920;DHT22;10122;50.074;19.920;2022-07-22T04:28:44;22.30;99.90
19920;DHT22;10122;50.074;19.920;2022-07-22T04:31:10;22.30;99.90
19920;DHT22;10122;50.074;19.920;2022-07-22T04:33:36;22.30;99.90
19920;DHT22;10122;50.074;19.920;2022-07-22T04:36:02;22.20;99.90
19920;DHT22;10122;50.074;19.920;2022-07-22T04:38:27;22.20;99.90
19920;DHT22;10122;50.074;19.920;2022-07-22T04:40:53;22.20;99.90
19920;DHT22;10122;50.074;19.920;2022-07-22T04:43:19;22.20;99.90
19920;DHT22;10122;50.074;19.920;2022-07-22T04:45:44;22.30;99.90
19920;DHT22;10122;50.074;19.920;2022-07-22T04:48:10;22.30;99.90
19920;DHT22;10122;50.074;19.920;2022-07-22T04:50:36;22.30;99.90
19920;DHT22;10122;50.074;19.920;2022-07-22T04:53:03;22.40;99.90
19920;DHT22;10122;50.074;19.920;2022-07-22T04:55:28;22.40;99.90
19920;DHT22;10122;50.074;19.920;2022-07-22T04:57:54;22.40;99.90
19920;DHT22;10122;50.074;19.920;2022-07-22T05:00:20;22.50;99.90
19920;DHT22;10122;50.074;19.920;2022-07-22T05:02:46;22.50;99.90
19920;DHT22;10122;50.074;19.920;2022-07-22T05:05:11;22.60;99.90
19920;DHT22;10122;50.074;19.920;2022-07-22T05:07:37;22.60;99.90
19920;DHT22;10122;50.074;19.920;2022-07-22T05:10:03;22.80;99.90
19920;DHT22;10122;50.074;19.920;2022-07-22T05:12:29;22.80;99.90
19920;DHT22;10122;50.074;19.920;2022-07-22T05:14:54;22.90;99.90
19920;DHT22;10122;50.074;19.920;2022-07-22T05:17:20;22.90;99.90
19920;DHT22;10122;50.074;19.920;2022-07-22T05:19:46;23.00;99.90
19920;DHT22;10122;50.074;19.920;2022-07-22T05:22:11;23.10;99.90
19920;DHT22;10122;50.074;19.920;2022-07-22T05:24:37;23.10;99.90
19920;DHT22;10122;50.074;19.920;2022-07-22T05:27:03;23.20;99.90
19920;DHT22;10122;50.074;19.920;2022-07-22T05:29:29;23.30;99.90
19920;DHT22;10122;50.074;19.920;2022-07-22T05:31:55;23.40;99.90
19920;DHT22;10122;50.074;19.920;2022-07-22T05:34:20;23.50;99.90
19920;DHT22;10122;50.074;19.920;2022-07-22T05:36:46;23.60;99.90
19920;DHT22;10122;50.074;19.920;2022-07-22T05:39:12;23.70;99.90
19920;DHT22;10122;50.074;19.920;2022-07-22T05:41:37;23.80;99.90
19920;DHT22;10122;50.074;19.920;2022-07-22T05:44:04;23.90;99.90
19920;DHT22;10122;50.074;19.920;2022-07-22T05:46:30;24.00;99.90
19920;DHT22;10122;50.074;19.920;2022-07-22T05:48:55;24.20;99.90
19920;DHT22;10122;50.074;19.920;2022-07-22T05:51:21;24.30;99.90
19920;DHT22;10122;50.074;19.920;2022-07-22T05:53:47;24.40;99.90
19920;DHT22;10122;50.074;19.920;2022-07-22T05:56:13;24.40;99.90
19920;DHT22;10122;50.074;19.920;2022-07-22T05:58:39;24.50;99.90
19920;DHT22;10122;50.074;19.920;2022-07-22T06:01:05;24.60;99.90
19920;DHT22;10122;50.074;19.920;2022-07-22T06:03:31;24.60;99.90
19920;DHT22;10122;50.074;19.920;2022-07-22T06:05:57;24.50;99.90
19920;DHT22;10122;50.074;19.920;2022-07-22T06:08:23;24.40;99.90
19920;DHT22;10122;50.074;19.920;2022-07-22T06:10:49;24.30;99.90
19920;DHT22;10122;50.074;19.920;2022-07-22T06:13:14;24.40;99.90
19920;DHT22;10122;50.074;19.920;2022-07-22T06:15:40;24.40;99.90
19920;DHT22;10122;50.074;19.920;2022-07-22T06:18:06;24.40;99.90
19920;DHT22;10122;50.074;19.920;2022-07-22T06:20:31;24.50;99.90
19920;DHT22;10122;50.074;19.920;2022-07-22T06:22:57;24.60;99.90
19920;DHT22;10122;50.074;19.920;2022-07-22T06:25:23;24.70;99.90
19920;DHT22;10122;50.074;19.920;2022-07-22T06:27:48;24.80;99.90
19920;DHT22;10122;50.074;19.920;2022-07-22T06:30:14;24.90;99.90
19920;DHT22;10122;50.074;19.920;2022-07-22T06:32:40;25.00;99.90
19920;DHT22;10122;50.074;19.920;2022-07-22T06:35:06;25.20;99.90
19920;DHT22;10122;50.074;19.920;2022-07-22T06:37:31;25.30;99.90
19920;DHT22;10122;50.074;19.920;2022-07-22T06:39:57;25.50;99.90
19920;DHT22;10122;50.074;19.920;2022-07-22T06:42:22;25.70;99.90
19920;DHT22;10122;50.074;19.920;2022-07-22T06:44:48;26.00;99.90
19920;DHT22;10122;50.074;19.920;2022-07-22T06:47:14;26.30;99.90
19920;DHT22;10122;50.074;19.920;2022-07-22T06:49:40;26.50;99.90
19920;DHT22;10122;50.074;19.920;2022-07-22T06:52:06;26.70;99.90
19920;DHT22;10122;50.074;19.920;2022-07-22T06:54:32;27.00;99.90
19920;DHT22;10122;50.074;19.920;2022-07-22T06:56:58;27.30;99.90
19920;DHT22;10122;50.074;19.920;2022-07-22T06:59:24;27.60;99.90
19920;DHT22;10122;50.074;19.920;2022-07-22T07:01:50;27.80;99.90
19920;DHT22;10122;50.074;19.920;2022-07-22T07:04:15;28.00;99.90
19920;DHT22;10122;50.074;19.920;2022-07-22T07:06:44;28.40;99.90
19920;DHT22;10122;50.074;19.920;2022-07-22T07:09:09;28.70;99.90
19920;DHT22;10122;50.074;19.920;2022-07-22T07:11:35;28.80;99.90
19920;DHT22;10122;50.074;19.920;2022-07-22T07:14:01;29.10;99.40
19920;DHT22;10122;50.074;19.920;2022-07-22T07:16:27;29.20;97.80
19920;DHT22;10122;50.074;19.920;2022-07-22T07:18:52;29.20;97.40
19920;DHT22;10122;50.074;19.920;2022-07-22T07:21:18;29.30;97.20
19920;DHT22;10122;50.074;19.920;2022-07-22T07:23:44;29.50;95.90
19920;DHT22;10122;50.074;19.920;2022-07-22T07:26:10;29.60;95.10
19920;DHT22;10122;50.074;19.920;2022-07-22T07:28:35;29.50;94.90
19920;DHT22;10122;50.074;19.920;2022-07-22T07:31:01;29.50;95.40
19920;DHT22;10122;50.074;19.920;2022-07-22T07:33:27;29.50;95.50
19920;DHT22;10122;50.074;19.920;2022-07-22T07:35:53;29.80;94.90
19920;DHT22;10122;50.074;19.920;2022-07-22T07:38:18;30.00;93.60
19920;DHT22;10122;50.074;19.920;2022-07-22T07:40:44;30.30;91.00
19920;DHT22;10122;50.074;19.920;2022-07-22T07:43:10;30.20;91.70
19920;DHT22;10122;50.074;19.920;2022-07-22T07:45:36;30.20;90.60
19920;DHT22;10122;50.074;19.920;2022-07-22T07:48:02;30.30;91.00
19920;DHT22;10122;50.074;19.920;2022-07-22T07:50:29;30.40;90.50
19920;DHT22;10122;50.074;19.920;2022-07-22T07:52:55;30.40;90.10
19920;DHT22;10122;50.074;19.920;2022-07-22T07:55:21;30.50;90.30
19920;DHT22;10122;50.074;19.920;2022-07-22T07:57:48;30.60;90.00
19920;DHT22;10122;50.074;19.920;2022-07-22T08:00:16;30.70;89.70
19920;DHT22;10122;50.074;19.920;2022-07-22T08:02:43;30.80;89.10
19920;DHT22;10122;50.074;19.920;2022-07-22T08:05:09;30.90;88.70
19920;DHT22;10122;50.074;19.920;2022-07-22T08:07:35;31.20;87.50
19920;DHT22;10122;50.074;19.920;2022-07-22T08:10:01;31.50;85.90
19920;DHT22;10122;50.074;19.920;2022-07-22T08:12:27;31.50;84.40
19920;DHT22;10122;50.074;19.920;2022-07-22T08:14:53;31.50;84.20
19920;DHT22;10122;50.074;19.920;2022-07-22T08:17:18;31.40;84.50
19920;DHT22;10122;50.074;19.920;2022-07-22T08:19:54;31.20;85.00
19920;DHT22;10122;50.074;19.920;2022-07-22T08:22:19;31.00;85.50
19920;DHT22;10122;50.074;19.920;2022-07-22T08:24:45;30.80;87.50
19920;DHT22;10122;50.074;19.920;2022-07-22T08:27:10;30.60;89.00
19920;DHT22;10122;50.074;19.920;2022-07-22T08:29:36;30.40;90.20
19920;DHT22;10122;50.074;19.920;2022-07-22T08:32:02;30.10;91.00
19920;DHT22;10122;50.074;19.920;2022-07-22T08:34:27;29.90;91.80
19920;DHT22;10122;50.074;19.920;2022-07-22T08:36:53;29.50;93.20
19920;DHT22;10122;50.074;19.920;2022-07-22T08:39:19;29.50;94.10
19920;DHT22;10122;50.074;19.920;2022-07-22T08:41:44;29.50;94.40
19920;DHT22;10122;50.074;19.920;2022-07-22T08:44:10;29.60;94.20
19920;DHT22;10122;50.074;19.920;2022-07-22T08:46:36;29.80;93.80
19920;DHT22;10122;50.074;19.920;2022-07-22T08:49:02;30.00;93.40
19920;DHT22;10122;50.074;19.920;2022-07-22T08:51:28;30.30;92.40
19920;DHT22;10122;50.074;19.920;2022-07-22T08:53:55;30.70;91.30
19920;DHT22;10122;50.074;19.920;2022-07-22T08:56:21;31.00;90.60
19920;DHT22;10122;50.074;19.920;2022-07-22T08:58:46;31.10;89.20
19920;DHT22;10122;50.074;19.920;2022-07-22T09:01:14;31.00;89.20
19920;DHT22;10122;50.074;19.920;2022-07-22T09:03:55;30.90;89.80
19920;DHT22;10122;50.074;19.920;2022-07-22T09:06:23;30.90;90.00
19920;DHT22;10122;50.074;19.920;2022-07-22T09:08:59;30.90;90.30
19920;DHT22;10122;50.074;19.920;2022-07-22T09:11:27;30.90;90.00
19920;DHT22;10122;50.074;19.920;2022-07-22T09:13:54;31.00;89.20
19920;DHT22;10122;50.074;19.920;2022-07-22T09:16:46;31.10;88.30
19920;DHT22;10122;50.074;19.920;2022-07-22T09:19:12;31.20;88.70
19920;DHT22;10122;50.074;19.920;2022-07-22T09:21:41;31.20;87.70
19920;DHT22;10122;50.074;19.920;2022-07-22T09:24:08;31.30;87.20
19920;DHT22;10122;50.074;19.920;2022-07-22T09:26:39;31.50;86.80
19920;DHT22;10122;50.074;19.920;2022-07-22T09:29:06;31.70;86.90
19920;DHT22;10122;50.074;19.920;2022-07-22T09:31:32;31.70;85.90
19920;DHT22;10122;50.074;19.920;2022-07-22T09:33:59;31.90;85.70
19920;DHT22;10122;50.074;19.920;2022-07-22T09:36:25;32.10;84.90
19920;DHT22;10122;50.074;19.920;2022-07-22T09:38:51;32.20;84.30
19920;DHT22;10122;50.074;19.920;2022-07-22T09:41:16;32.20;84.20
19920;DHT22;10122;50.074;19.920;2022-07-22T09:43:42;32.30;83.50
19920;DHT22;10122;50.074;19.920;2022-07-22T09:46:08;32.30;82.70
19920;DHT22;10122;50.074;19.920;2022-07-22T09:48:38;32.30;83.00
19920;DHT22;10122;50.074;19.920;2022-07-22T09:51:05;32.30;83.00
19920;DHT22;10122;50.074;19.920;2022-07-22T09:53:32;32.30;83.20
19920;DHT22;10122;50.074;19.920;2022-07-22T09:56:00;32.30;82.90
19920;DHT22;10122;50.074;19.920;2022-07-22T09:58:26;32.20;82.90
19920;DHT22;10122;50.074;19.920;2022-07-22T10:00:53;32.20;83.60
19920;DHT22;10122;50.074;19.920;2022-07-22T10:03:25;32.10;83.90
19920;DHT22;10122;50.074;19.920;2022-07-22T10:05:51;32.00;84.00
19920;DHT22;10122;50.074;19.920;2022-07-22T10:08:18;31.80;85.40
19920;DHT22;10122;50.074;19.920;2022-07-22T10:10:45;31.80;86.10
19920;DHT22;10122;50.074;19.920;2022-07-22T10:13:10;31.80;86.20
19920;DHT22;10122;50.074;19.920;2022-07-22T10:15:37;31.90;86.20
19920;DHT22;10122;50.074;19.920;2022-07-22T10:18:07;31.80;85.90
19920;DHT22;10122;50.074;19.920;2022-07-22T10:20:34;31.80;85.70
19920;DHT22;10122;50.074;19.920;2022-07-22T10:23:04;31.80;86.20
19920;DHT22;10122;50.074;19.920;2022-07-22T10:25:32;31.80;86.60
19920;DHT22;10122;50.074;19.920;2022-07-22T10:30:49;31.60;88.10
19920;DHT22;10122;50.074;19.920;2022-07-22T10:33:16;31.70;87.70
19920;DHT22;10122;50.074;19.920;2022-07-22T10:36:00;31.70;87.30
19920;DHT22;10122;50.074;19.920;2022-07-22T10:38:28;31.70;87.30
19920;DHT22;10122;50.074;19.920;2022-07-22T10:41:03;31.70;87.00
19920;DHT22;10122;50.074;19.920;2022-07-22T10:43:30;31.70;87.40
19920;DHT22;10122;50.074;19.920;2022-07-22T10:45:57;31.70;88.00
19920;DHT22;10122;50.074;19.920;2022-07-22T10:51:14;31.60;88.40
19920;DHT22;10122;50.074;19.920;2022-07-22T10:56:29;31.50;88.80
19920;DHT22;10122;50.074;19.920;2022-07-22T10:59:11;31.50;88.70
19920;DHT22;10122;50.074;19.920;2022-07-22T11:01:40;31.50;89.10
19920;DHT22;10122;50.074;19.920;2022-07-22T11:04:24;31.50;88.40
19920;DHT22;10122;50.074;19.920;2022-07-22T11:06:52;31.60;89.60
19920;DHT22;10122;50.074;19.920;2022-07-22T11:09:23;31.60;90.00
19920;DHT22;10122;50.074;19.920;2022-07-22T11:11:55;31.70;90.00
19920;DHT22;10122;50.074;19.920;2022-07-22T11:14:27;31.70;89.40
19920;DHT22;10122;50.074;19.920;2022-07-22T11:16:57;31.70;90.00
19920;DHT22;10122;50.074;19.920;2022-07-22T11:19:28;31.80;89.00
19920;DHT22;10122;50.074;19.920;2022-07-22T11:21:57;31.90;87.70
19920;DHT22;10122;50.074;19.920;2022-07-22T11:24:24;31.90;88.80
19920;DHT22;10122;50.074;19.920;2022-07-22T11:26:53;31.90;87.80
19920;DHT22;10122;50.074;19.920;2022-07-22T11:29:29;31.90;87.00
19920;DHT22;10122;50.074;19.920;2022-07-22T11:31:56;31.90;87.00
19920;DHT22;10122;50.074;19.920;2022-07-22T11:34:23;32.00;86.00
19920;DHT22;10122;50.074;19.920;2022-07-22T11:36:50;32.10;86.10
19920;DHT22;10122;50.074;19.920;2022-07-22T11:39:22;32.20;85.60
19920;DHT22;10122;50.074;19.920;2022-07-22T11:41:49;32.20;85.40
19920;DHT22;10122;50.074;19.920;2022-07-22T11:44:19;32.20;85.50
19920;DHT22;10122;50.074;19.920;2022-07-22T11:46:46;32.10;85.00
19920;DHT22;10122;50.074;19.920;2022-07-22T11:49:18;32.10;84.90
19920;DHT22;10122;50.074;19.920;2022-07-22T11:51:43;32.00;85.80
19920;DHT22;10122;50.074;19.920;2022-07-22T11:54:10;32.10;85.70
19920;DHT22;10122;50.074;19.920;2022-07-22T11:56:36;32.10;85.60
19920;DHT22;10122;50.074;19.920;2022-07-22T11:59:02;32.20;85.70
19920;DHT22;10122;50.074;19.920;2022-07-22T12:01:35;32.20;85.60
19920;DHT22;10122;50.074;19.920;2022-07-22T12:04:09;32.30;85.20
19920;DHT22;10122;50.074;19.920;2022-07-22T12:06:39;32.30;85.00
19920;DHT22;10122;50.074;19.920;2022-07-22T12:09:14;32.30;85.60
19920;DHT22;10122;50.074;19.920;2022-07-22T12:11:44;32.30;85.60
19920;DHT22;10122;50.074;19.920;2022-07-22T12:14:16;32.30;85.90
19920;DHT22;10122;50.074;19.920;2022-07-22T12:16:44;32.30;85.00
19920;DHT22;10122;50.074;19.920;2022-07-22T12:19:11;32.30;85.20
19920;DHT22;10122;50.074;19.920;2022-07-22T12:24:27;32.30;85.50
19920;DHT22;10122;50.074;19.920;2022-07-22T12:26:54;32.30;85.10
19920;DHT22;10122;50.074;19.920;2022-07-22T12:31:59;32.30;86.20
19920;DHT22;10122;50.074;19.920;2022-07-22T12:34:40;32.20;86.60
19920;DHT22;10122;50.074;19.920;2022-07-22T12:37:27;32.20;86.10
19920;DHT22;10122;50.074;19.920;2022-07-22T12:42:25;32.30;86.10
19920;DHT22;10122;50.074;19.920;2022-07-22T12:47:43;32.30;86.40
19920;DHT22;10122;50.074;19.920;2022-07-22T12:52:47;32.30;88.60
19920;DHT22;10122;50.074;19.920;2022-07-22T12:55:13;32.20;87.50
19920;DHT22;10122;50.074;19.920;2022-07-22T12:57:39;32.10;89.80
19920;DHT22;10122;50.074;19.920;2022-07-22T13:00:05;32.10;91.40
19920;DHT22;10122;50.074;19.920;2022-07-22T13:02:31;32.00;90.80
19920;DHT22;10122;50.074;19.920;2022-07-22T13:04:57;32.10;91.40
19920;DHT22;10122;50.074;19.920;2022-07-22T13:07:22;32.10;92.50
19920;DHT22;10122;50.074;19.920;2022-07-22T13:09:48;32.20;92.00
19920;DHT22;10122;50.074;19.920;2022-07-22T13:12:14;32.10;92.60
19920;DHT22;10122;50.074;19.920;2022-07-22T13:14:39;32.20;92.90
19920;DHT22;10122;50.074;19.920;2022-07-22T13:17:05;32.10;92.20
19920;DHT22;10122;50.074;19.920;2022-07-22T13:19:30;32.10;92.50
19920;DHT22;10122;50.074;19.920;2022-07-22T13:21:56;32.10;95.10
19920;DHT22;10122;50.074;19.920;2022-07-22T13:24:22;32.10;91.10
19920;DHT22;10122;50.074;19.920;2022-07-22T13:26:47;32.10;92.60
19920;DHT22;10122;50.074;19.920;2022-07-22T13:29:13;32.00;93.30
19920;DHT22;10122;50.074;19.920;2022-07-22T13:31:39;32.00;94.70
19920;DHT22;10122;50.074;19.920;2022-07-22T13:34:04;31.90;93.70
19920;DHT22;10122;50.074;19.920;2022-07-22T13:36:30;32.00;92.90
19920;DHT22;10122;50.074;19.920;2022-07-22T13:38:59;32.00;93.70
19920;DHT22;10122;50.074;19.920;2022-07-22T13:41:25;32.10;90.20
19920;DHT22;10122;50.074;19.920;2022-07-22T13:43:51;32.10;90.00
19920;DHT22;10122;50.074;19.920;2022-07-22T13:46:17;32.10;91.50
19920;DHT22;10122;50.074;19.920;2022-07-22T13:48:44;32.20;91.60
19920;DHT22;10122;50.074;19.920;2022-07-22T13:51:10;32.30;93.00
19920;DHT22;10122;50.074;19.920;2022-07-22T13:53:35;32.40;85.20
19920;DHT22;10122;50.074;19.920;2022-07-22T13:56:01;32.40;88.30
19920;DHT22;10122;50.074;19.920;2022-07-22T13:58:27;32.40;89.60
19920;DHT22;10122;50.074;19.920;2022-07-22T14:00:53;32.50;85.90
19920;DHT22;10122;50.074;19.920;2022-07-22T14:03:19;32.50;85.20
19920;DHT22;10122;50.074;19.920;2022-07-22T14:05:45;32.50;85.50
19920;DHT22;10122;50.074;19.920;2022-07-22T14:08:10;32.50;91.40
19920;DHT22;10122;50.074;19.920;2022-07-22T14:10:36;32.60;90.70
19920;DHT22;10122;50.074;19.920;2022-07-22T14:13:02;32.50;85.60
19920;DHT22;10122;50.074;19.920;2022-07-22T14:15:28;32.60;90.90
19920;DHT22;10122;50.074;19.920;2022-07-22T14:17:53;32.60;92.10
19920;DHT22;10122;50.074;19.920;2022-07-22T14:20:19;32.60;93.00
19920;DHT22;10122;50.074;19.920;2022-07-22T14:22:45;32.60;87.60
19920;DHT22;10122;50.074;19.920;2022-07-22T14:25:10;32.60;89.00
19920;DHT22;10122;50.074;19.920;2022-07-22T14:27:36;32.60;87.30
19920;DHT22;10122;50.074;19.920;2022-07-22T14:30:03;32.60;79.10
19920;DHT22;10122;50.074;19.920;2022-07-22T14:32:28;32.60;88.60
19920;DHT22;10122;50.074;19.920;2022-07-22T14:34:54;32.60;91.10
19920;DHT22;10122;50.074;19.920;2022-07-22T14:37:20;32.70;86.70
19920;DHT22;10122;50.074;19.920;2022-07-22T14:39:45;32.60;78.80
19920;DHT22;10122;50.074;19.920;2022-07-22T14:42:11;32.60;90.00
19920;DHT22;10122;50.074;19.920;2022-07-22T14:44:37;32.60;89.00
19920;DHT22;10122;50.074;19.920;2022-07-22T14:47:02;32.70;91.90
19920;DHT22;10122;50.074;19.920;2022-07-22T14:49:28;32.70;92.30
19920;DHT22;10122;50.074;19.920;2022-07-22T14:51:54;32.70;85.50
19920;DHT22;10122;50.074;19.920;2022-07-22T14:54:20;32.60;82.10
19920;DHT22;10122;50.074;19.920;2022-07-22T14:56:45;32.60;83.60
19920;DHT22;10122;50.074;19.920;2022-07-22T14:59:11;32.60;90.50
19920;DHT22;10122;50.074;19.920;2022-07-22T15:01:37;32.70;91.00
19920;DHT22;10122;50.074;19.920;2022-07-22T15:04:02;32.70;88.90
19920;DHT22;10122;50.074;19.920;2022-07-22T15:06:28;32.70;89.40
19920;DHT22;10122;50.074;19.920;2022-07-22T15:08:54;32.70;85.50
19920;DHT22;10122;50.074;19.920;2022-07-22T15:11:19;32.70;78.00
19920;DHT22;10122;50.074;19.920;2022-07-22T15:13:45;32.60;80.70
19920;DHT22;10122;50.074;19.920;2022-07-22T15:16:11;32.60;78.80
19920;DHT22;10122;50.074;19.920;2022-07-22T15:18:38;32.70;83.40
19920;DHT22;10122;50.074;19.920;2022-07-22T15:21:04;32.70;86.70
19920;DHT22;10122;50.074;19.920;2022-07-22T15:23:30;32.70;77.70
19920;DHT22;10122;50.074;19.920;2022-07-22T15:26:00;32.70;74.90
19920;DHT22;10122;50.074;19.920;2022-07-22T15:28:27;32.60;75.70
19920;DHT22;10122;50.074;19.920;2022-07-22T15:30:56;32.70;84.70
19920;DHT22;10122;50.074;19.920;2022-07-22T15:33:21;32.70;86.50